Kimberly Turecamo — WDC6838 — position and weather

sailwx.info

Track history (hours):
 
Tides and Currents Weather Stations Pressure Air Temp Water Temp Dewpoint Dewpoint Depression Visibility Wind Speed Wind Dir Waves Ship Positions

Kimberly Turecamo

Owner: Moran Towing Corporation, New Canaan, CT. More information available from US FCC via Universal Licensing System and Coast Guard Vessel Documentation Center.

Last reported at 2016-May-05 23:33 UTC. Time now 2016-May-05 23:54 UTC.
Position N 40°38' W 074°08'.

Length 33 m; draft 5 m.

Type: Tow > 200 m length. MMSI: 367061980.

Date/timePositionNaut miles runAvg speedWind from/ knotsBaromVisibWave heightAir tempDewpointWater temp
2016-May-05 23:33N 40°38' W 074°08'0 0.0
2016-May-05 22:33N 40°38' W 074°08'0 0.0
2016-May-05 21:33N 40°38' W 074°08'0 0.0
2016-May-05 20:33N 40°38' W 074°08'2 1.5
2016-May-05 19:33N 40°39' W 074°06'1 0.6
2016-May-05 18:33N 40°39' W 074°05'2 2.1
2016-May-05 17:33N 40°38' W 074°08'3 3.0
2016-May-05 16:33N 40°39' W 074°04'4 3.7
2016-May-05 15:33N 40°38' W 074°09'2 1.2
2016-May-05 13:33N 40°38' W 074°12'3 3.1
2016-May-05 12:33N 40°38' W 074°08'0 0.0
2016-May-05 11:33N 40°38' W 074°08'0 0.0
2016-May-05 10:33N 40°38' W 074°08'0 0.0
2016-May-05 09:33N 40°38' W 074°08'0 0.0
2016-May-05 08:33N 40°38' W 074°08'0 0.0
2016-May-05 07:33N 40°38' W 074°08'0 0.0
2016-May-05 06:33N 40°38' W 074°08'0 0.0
2016-May-05 05:33N 40°38' W 074°08'3 2.8
2016-May-05 04:33N 40°41' W 074°09'3 2.9
2016-May-05 03:34N 40°39' W 074°07'1 1.1
2016-May-05 02:34N 40°39' W 074°06'2 1.6
2016-May-05 01:33N 40°40' W 074°05'2 1.7
2016-May-05 00:34N 40°39' W 074°04'1 1.1
2016-May-04 23:34N 40°40' W 074°04'2 1.6
2016-May-04 22:33N 40°39' W 074°06'2 1.9
2016-May-04 21:34N 40°38' W 074°04'3 3.2
2016-May-04 20:33N 40°38' W 074°08'0 0.0
2016-May-04 19:33N 40°38' W 074°08'0 0.0
2016-May-04 18:33N 40°38' W 074°08'0 0.2
2016-May-04 17:33N 40°39' W 074°08'0 0.4
2016-May-04 16:34N 40°39' W 074°07'1 0.6
2016-May-04 15:33N 40°38' W 074°08'0 0.0
2016-May-04 14:33N 40°38' W 074°08'0 0.0
2016-May-04 13:30N 40°38' W 074°08'0 0.0
2016-May-04 12:33N 40°38' W 074°08'0 0.0
2016-May-04 11:33N 40°38' W 074°08'0 0.0
2016-May-04 10:33N 40°38' W 074°08'0 0.0
2016-May-04 09:33N 40°38' W 074°08'0 0.0
2016-May-04 08:33N 40°38' W 074°08'0 0.0
2016-May-04 07:33N 40°38' W 074°08'0 0.0
2016-May-04 06:33N 40°38' W 074°08'0 0.0
2016-May-04 05:33N 40°38' W 074°08'0 0.0
2016-May-04 04:33N 40°38' W 074°08'0 0.0
2016-May-04 03:33N 40°38' W 074°08'0 0.0
2016-May-04 02:33N 40°38' W 074°08'0 0.0
2016-May-04 01:33N 40°38' W 074°08'5 4.6
2016-May-04 00:33N 40°40' W 074°02'1 0.6
2016-May-03 23:33N 40°41' W 074°01'5 5.2
2016-May-03 22:33N 40°40' W 074°08'2 1.8
2016-May-03 21:33N 40°42' W 074°09'3 3.1
2016-May-03 20:33N 40°39' W 074°10'0 0.4
2016-May-03 19:33N 40°39' W 074°10'0 0.0
2016-May-03 18:33N 40°39' W 074°10'6 5.7
2016-May-03 17:33N 40°39' W 074°02'5 4.7
2016-May-03 16:33N 40°40' W 074°09'0 0.2
2016-May-03 15:33N 40°40' W 074°08'1 1.4
2016-May-03 14:33N 40°38' W 074°08'0 0.0
2016-May-03 13:33N 40°38' W 074°08'0 0.0
2016-May-03 12:34N 40°38' W 074°08'0 0.0
2016-May-03 11:33N 40°38' W 074°08'2 1.7
2016-May-03 10:33N 40°39' W 074°06'0 0.3
2016-May-03 09:33N 40°39' W 074°05'2 2.3
2016-May-03 08:33N 40°37' W 074°03'3 3.4
2016-May-03 07:33N 40°39' W 074°08'0 0.1
2016-May-03 06:33N 40°38' W 074°08'0 0.0
2016-May-03 05:33N 40°38' W 074°08'0 0.0
2016-May-03 04:33N 40°38' W 074°08'0 0.0
2016-May-03 03:33N 40°38' W 074°08'0 0.0
2016-May-03 02:33N 40°38' W 074°08'0 0.0
2016-May-03 01:33N 40°38' W 074°08'0 0.0
2016-May-03 00:33N 40°38' W 074°08'0 0.0
2016-May-02 23:33N 40°38' W 074°08'0 0.0
2016-May-02 22:33N 40°38' W 074°08'1 0.7
2016-May-02 21:33N 40°39' W 074°07'0 0.0
2016-May-02 20:34N 40°39' W 074°07'1 0.7
2016-May-02 19:33N 40°38' W 074°08'1 1.0
2016-May-02 18:33N 40°39' W 074°07'0 0.0
2016-May-02 17:33N 40°39' W 074°07'0 0.0
2016-May-02 16:31N 40°39' W 074°07'3 3.3
2016-May-02 15:33N 40°39' W 074°02'0 0.0
2016-May-02 14:33N 40°39' W 074°02'0 0.0
2016-May-02 13:34N 40°39' W 074°02'2 1.8
2016-May-02 12:33N 40°39' W 074°05'2 2.1
2016-May-02 11:33N 40°39' W 074°08'1 1.4
2016-May-02 10:33N 40°40' W 074°08'2 1.8
2016-May-02 09:33N 40°39' W 074°06'3 2.9
2016-May-02 08:34N 40°39' W 074°03'0 0.2
2016-May-02 07:33N 40°39' W 074°02'0 0.1
2016-May-02 06:33N 40°39' W 074°02'0 0.0
2016-May-02 05:33N 40°39' W 074°02'4 3.8
2016-May-02 04:33N 40°35' W 074°02'35 6.5
2016-May-01 23:14N 40°01' W 073°55'6 8.5
2016-May-01 22:33N 39°55' W 073°56'9 8.8
2016-May-01 21:33N 39°47' W 073°57'9 9.0
2016-May-01 20:33N 39°38' W 073°59'9 8.7
2016-May-01 19:33N 39°31' W 074°05'60 8.6
2016-May-01 12:33N 38°43' W 074°54'12 8.2
2016-May-01 11:05N 38°32' W 074°58'5 9.0
2016-May-01 10:31N 38°27' W 074°58'  
2016-Apr-28 23:29N 32°04' W 080°10'9 9.5
2016-Apr-28 22:29N 31°58' W 080°19'9 9.6
2016-Apr-28 21:33N 31°52' W 080°27'9 9.0
2016-Apr-28 20:32N 31°44' W 080°33'9 9.3
2016-Apr-28 19:32N 31°36' W 080°36'274 9.1
2016-Apr-27 13:33N 27°04' W 079°58'1111.1
2016-Apr-27 12:33N 26°53' W 079°55'1312.4
2016-Apr-27 11:32N 26°40' W 079°56'1212.2
2016-Apr-27 10:33N 26°29' W 079°57'1211.6
2016-Apr-27 09:33N 26°17' W 079°59'1010.4
2016-Apr-27 08:33N 26°07' W 080°00'9 9.1
2016-Apr-27 07:33N 25°58' W 080°02'9 8.8
2016-Apr-27 06:33N 25°49' W 080°03'6 5.0
2016-Apr-27 05:20N 25°46' W 080°09'0 0.1
2016-Apr-27 04:32N 25°46' W 080°09'6 0.3
2016-Apr-26 10:33N 25°50' W 080°04'5 4.8
2016-Apr-26 09:33N 25°55' W 080°03'3 3.3
2016-Apr-26 08:33N 25°52' W 080°02'4 3.6
2016-Apr-26 07:33N 25°55' W 080°03'4 4.0
2016-Apr-26 06:33N 25°59' W 080°02'3 3.0
2016-Apr-26 05:33N 26°02' W 080°01'5 4.9
2016-Apr-26 04:33N 25°57' W 080°02'5 5.0
2016-Apr-26 03:33N 25°52' W 080°03'4 4.1
2016-Apr-26 02:33N 25°48' W 080°04'4 3.9
2016-Apr-26 01:33N 25°52' W 080°03'3 3.3
2016-Apr-26 00:33N 25°55' W 080°02'  
Track history (hours):
 
Tides and Currents Weather Stations Pressure Air Temp Water Temp Dewpoint Dewpoint Depression Visibility Wind Speed Wind Dir Waves Ship Positions

Kimberly Turecamo

Owner: Moran Towing Corporation, New Canaan, CT. More information available from US FCC via Universal Licensing System and Coast Guard Vessel Documentation Center.

Last reported at 2016-May-05 23:33 UTC. Time now 2016-May-05 23:54 UTC.
Position N 40°38' W 074°08'.

Length 33 m; draft 5 m.

Type: Tow > 200 m length. MMSI: 367061980.

Date/timePositionNaut miles runAvg speedWind from/ knotsBaromVisibWave heightAir tempDewpointWater temp
2016-May-05 23:33N 40°38' W 074°08'0 0.0
2016-May-05 22:33N 40°38' W 074°08'0 0.0
2016-May-05 21:33N 40°38' W 074°08'0 0.0
2016-May-05 20:33N 40°38' W 074°08'2 1.5
2016-May-05 19:33N 40°39' W 074°06'1 0.6
2016-May-05 18:33N 40°39' W 074°05'2 2.1
2016-May-05 17:33N 40°38' W 074°08'3 3.0
2016-May-05 16:33N 40°39' W 074°04'4 3.7
2016-May-05 15:33N 40°38' W 074°09'2 1.2
2016-May-05 13:33N 40°38' W 074°12'3 3.1
2016-May-05 12:33N 40°38' W 074°08'0 0.0
2016-May-05 11:33N 40°38' W 074°08'0 0.0
2016-May-05 10:33N 40°38' W 074°08'0 0.0
2016-May-05 09:33N 40°38' W 074°08'0 0.0
2016-May-05 08:33N 40°38' W 074°08'0 0.0
2016-May-05 07:33N 40°38' W 074°08'0 0.0
2016-May-05 06:33N 40°38' W 074°08'0 0.0
2016-May-05 05:33N 40°38' W 074°08'3 2.8
2016-May-05 04:33N 40°41' W 074°09'3 2.9
2016-May-05 03:34N 40°39' W 074°07'1 1.1
2016-May-05 02:34N 40°39' W 074°06'2 1.6
2016-May-05 01:33N 40°40' W 074°05'2 1.7
2016-May-05 00:34N 40°39' W 074°04'1 1.1
2016-May-04 23:34N 40°40' W 074°04'2 1.6
2016-May-04 22:33N 40°39' W 074°06'2 1.9
2016-May-04 21:34N 40°38' W 074°04'3 3.2
2016-May-04 20:33N 40°38' W 074°08'0 0.0
2016-May-04 19:33N 40°38' W 074°08'0 0.0
2016-May-04 18:33N 40°38' W 074°08'0 0.2
2016-May-04 17:33N 40°39' W 074°08'0 0.4
2016-May-04 16:34N 40°39' W 074°07'1 0.6
2016-May-04 15:33N 40°38' W 074°08'0 0.0
2016-May-04 14:33N 40°38' W 074°08'0 0.0
2016-May-04 13:30N 40°38' W 074°08'0 0.0
2016-May-04 12:33N 40°38' W 074°08'0 0.0
2016-May-04 11:33N 40°38' W 074°08'0 0.0
2016-May-04 10:33N 40°38' W 074°08'0 0.0
2016-May-04 09:33N 40°38' W 074°08'0 0.0
2016-May-04 08:33N 40°38' W 074°08'0 0.0
2016-May-04 07:33N 40°38' W 074°08'0 0.0
2016-May-04 06:33N 40°38' W 074°08'0 0.0
2016-May-04 05:33N 40°38' W 074°08'0 0.0
2016-May-04 04:33N 40°38' W 074°08'0 0.0
2016-May-04 03:33N 40°38' W 074°08'0 0.0
2016-May-04 02:33N 40°38' W 074°08'0 0.0
2016-May-04 01:33N 40°38' W 074°08'5 4.6
2016-May-04 00:33N 40°40' W 074°02'1 0.6
2016-May-03 23:33N 40°41' W 074°01'5 5.2
2016-May-03 22:33N 40°40' W 074°08'2 1.8
2016-May-03 21:33N 40°42' W 074°09'3 3.1
2016-May-03 20:33N 40°39' W 074°10'0 0.4
2016-May-03 19:33N 40°39' W 074°10'0 0.0
2016-May-03 18:33N 40°39' W 074°10'6 5.7
2016-May-03 17:33N 40°39' W 074°02'5 4.7
2016-May-03 16:33N 40°40' W 074°09'0 0.2
2016-May-03 15:33N 40°40' W 074°08'1 1.4
2016-May-03 14:33N 40°38' W 074°08'0 0.0
2016-May-03 13:33N 40°38' W 074°08'0 0.0
2016-May-03 12:34N 40°38' W 074°08'0 0.0
2016-May-03 11:33N 40°38' W 074°08'2 1.7
2016-May-03 10:33N 40°39' W 074°06'0 0.3
2016-May-03 09:33N 40°39' W 074°05'2 2.3
2016-May-03 08:33N 40°37' W 074°03'3 3.4
2016-May-03 07:33N 40°39' W 074°08'0 0.1
2016-May-03 06:33N 40°38' W 074°08'0 0.0
2016-May-03 05:33N 40°38' W 074°08'0 0.0
2016-May-03 04:33N 40°38' W 074°08'0 0.0
2016-May-03 03:33N 40°38' W 074°08'0 0.0
2016-May-03 02:33N 40°38' W 074°08'0 0.0
2016-May-03 01:33N 40°38' W 074°08'0 0.0
2016-May-03 00:33N 40°38' W 074°08'0 0.0
2016-May-02 23:33N 40°38' W 074°08'0 0.0
2016-May-02 22:33N 40°38' W 074°08'1 0.7
2016-May-02 21:33N 40°39' W 074°07'0 0.0
2016-May-02 20:34N 40°39' W 074°07'1 0.7
2016-May-02 19:33N 40°38' W 074°08'1 1.0
2016-May-02 18:33N 40°39' W 074°07'0 0.0
2016-May-02 17:33N 40°39' W 074°07'0 0.0
2016-May-02 16:31N 40°39' W 074°07'3 3.3
2016-May-02 15:33N 40°39' W 074°02'0 0.0
2016-May-02 14:33N 40°39' W 074°02'0 0.0
2016-May-02 13:34N 40°39' W 074°02'2 1.8
2016-May-02 12:33N 40°39' W 074°05'2 2.1
2016-May-02 11:33N 40°39' W 074°08'1 1.4
2016-May-02 10:33N 40°40' W 074°08'2 1.8
2016-May-02 09:33N 40°39' W 074°06'3 2.9
2016-May-02 08:34N 40°39' W 074°03'0 0.2
2016-May-02 07:33N 40°39' W 074°02'0 0.1
2016-May-02 06:33N 40°39' W 074°02'0 0.0
2016-May-02 05:33N 40°39' W 074°02'4 3.8
2016-May-02 04:33N 40°35' W 074°02'35 6.5
2016-May-01 23:14N 40°01' W 073°55'6 8.5
2016-May-01 22:33N 39°55' W 073°56'9 8.8
2016-May-01 21:33N 39°47' W 073°57'9 9.0
2016-May-01 20:33N 39°38' W 073°59'9 8.7
2016-May-01 19:33N 39°31' W 074°05'60 8.6
2016-May-01 12:33N 38°43' W 074°54'12 8.2
2016-May-01 11:05N 38°32' W 074°58'5 9.0
2016-May-01 10:31N 38°27' W 074°58'  
2016-Apr-28 23:29N 32°04' W 080°10'9 9.5
2016-Apr-28 22:29N 31°58' W 080°19'9 9.6
2016-Apr-28 21:33N 31°52' W 080°27'9 9.0
2016-Apr-28 20:32N 31°44' W 080°33'9 9.3
2016-Apr-28 19:32N 31°36' W 080°36'274 9.1
2016-Apr-27 13:33N 27°04' W 079°58'1111.1
2016-Apr-27 12:33N 26°53' W 079°55'1312.4
2016-Apr-27 11:32N 26°40' W 079°56'1212.2
2016-Apr-27 10:33N 26°29' W 079°57'1211.6
2016-Apr-27 09:33N 26°17' W 079°59'1010.4
2016-Apr-27 08:33N 26°07' W 080°00'9 9.1
2016-Apr-27 07:33N 25°58' W 080°02'9 8.8
2016-Apr-27 06:33N 25°49' W 080°03'6 5.0
2016-Apr-27 05:20N 25°46' W 080°09'0 0.1
2016-Apr-27 04:32N 25°46' W 080°09'6 0.3
2016-Apr-26 10:33N 25°50' W 080°04'5 4.8
2016-Apr-26 09:33N 25°55' W 080°03'3 3.3
2016-Apr-26 08:33N 25°52' W 080°02'4 3.6
2016-Apr-26 07:33N 25°55' W 080°03'4 4.0
2016-Apr-26 06:33N 25°59' W 080°02'3 3.0
2016-Apr-26 05:33N 26°02' W 080°01'5 4.9
2016-Apr-26 04:33N 25°57' W 080°02'5 5.0
2016-Apr-26 03:33N 25°52' W 080°03'4 4.1
2016-Apr-26 02:33N 25°48' W 080°04'4 3.9
2016-Apr-26 01:33N 25°52' W 080°03'3 3.3
2016-Apr-26 00:33N 25°55' W 080°02'  

Dump ship's entire track history